Time;durP1;ratioP1;P1;durP2;ratioP2;P2;SDS_P1;SDS_P2;PMS_P1;PMS_P2;Temp;Humidity;BMP_temperature;BMP_pressure;BME280_temperature;BME280_humidity;BME280_pressure;Samples;Min_cycle;Max_cycle;Signal;HPM_P1;HPM_P2
2022/06/04 00:01:03;;;;;;;4.10;2.70;;;;;;;;;;5117346;28;20760;-70
2022/06/04 00:03:31;;;;;;;3.67;2.63;;;;;;;;;;5117988;28;20531;-70
2022/06/04 00:05:59;;;;;;;4.30;2.40;;;;;;;;;;5118319;28;20530;-70
2022/06/04 00:08:30;;;;;;;3.93;2.70;;;;;;;;;;5117549;28;20584;-70
2022/06/04 00:16:31;;;;;;;3.30;2.17;;;;;;;;;;5097793;28;20489;-71
2022/06/04 00:18:59;;;;;;;4.07;3.10;;;;;;;;;;5097322;28;20444;-70
2022/06/04 00:21:27;;;;;;;3.70;2.97;;;;;;;;;;5097847;28;20999;-70
2022/06/04 00:23:55;;;;;;;3.70;2.73;;;;;;;;;;5097465;28;20458;-70
2022/06/04 00:26:23;;;;;;;4.20;2.60;;;;;;;;;;5097542;28;20460;-71
2022/06/04 00:28:52;;;;;;;5.40;2.43;;;;;;;;;;5096006;28;20483;-70
2022/06/04 00:31:20;;;;;;;2.87;2.33;;;;;;;;;;5098268;28;20479;-70
2022/06/04 00:33:48;;;;;;;7.13;3.50;;;;;;;;;;5097539;28;20539;-70
2022/06/04 00:36:16;;;;;;;5.37;3.10;;;;;;;;;;5096863;28;20901;-70
2022/06/04 00:38:45;;;;;;;3.57;2.80;;;;;;;;;;5096634;28;20456;-70
2022/06/04 00:41:21;;;;;;;4.40;3.00;;;;;;;;;;5096535;28;20483;-70
2022/06/04 00:43:57;;;;;;;3.73;2.87;;;;;;;;;;5096942;28;20455;-70
2022/06/04 00:46:52;;;;;;;4.87;2.83;;;;;;;;;;5096242;28;20855;-70
2022/06/04 00:49:20;;;;;;;3.90;2.70;;;;;;;;;;5096880;28;20479;-70
2022/06/04 00:51:53;;;;;;;5.30;2.63;;;;;;;;;;5097881;28;20444;-71
2022/06/04 00:54:25;;;;;;;4.10;2.70;;;;;;;;;;5097077;28;20467;-72
2022/06/04 00:56:55;;;;;;;3.50;2.20;;;;;;;;;;5096625;28;20454;-70
2022/06/04 00:59:30;;;;;;;2.90;2.50;;;;;;;;;;5096064;28;20465;-70
2022/06/04 01:02:01;;;;;;;5.20;3.20;;;;;;;;;;5095520;28;20551;-70
2022/06/04 01:04:49;;;;;;;3.87;2.90;;;;;;;;;;5096126;28;20573;-70
2022/06/04 01:07:30;;;;;;;6.70;2.97;;;;;;;;;;5095798;28;20747;-71
2022/06/04 01:10:07;;;;;;;5.13;2.80;;;;;;;;;;5095448;28;20474;-71
2022/06/04 01:12:40;;;;;;;3.97;2.77;;;;;;;;;;5095659;28;20451;-71
2022/06/04 01:15:14;;;;;;;3.60;2.50;;;;;;;;;;5097309;28;20486;-70
2022/06/04 01:17:50;;;;;;;3.03;2.23;;;;;;;;;;5095694;28;20477;-70
2022/06/04 01:20:21;;;;;;;3.70;2.53;;;;;;;;;;5096469;28;20455;-70
2022/06/04 01:23:11;;;;;;;3.50;2.70;;;;;;;;;;5096384;28;20802;-70
2022/06/04 01:25:46;;;;;;;5.73;2.20;;;;;;;;;;5095923;28;20902;-71
2022/06/04 01:28:17;;;;;;;5.30;3.00;;;;;;;;;;5096351;28;20836;-70
2022/06/04 01:30:46;;;;;;;6.07;2.87;;;;;;;;;;5095578;28;20454;-71
2022/06/04 01:33:18;;;;;;;4.10;2.70;;;;;;;;;;5095541;28;20482;-71
2022/06/04 01:35:48;;;;;;;3.53;2.60;;;;;;;;;;5096186;28;20448;-70
2022/06/04 01:38:19;;;;;;;4.70;2.93;;;;;;;;;;5095177;28;20872;-71
2022/06/04 01:41:03;;;;;;;9.30;3.50;;;;;;;;;;5094921;28;20516;-71
2022/06/04 01:43:34;;;;;;;4.87;2.87;;;;;;;;;;5096150;28;20557;-71
2022/06/04 01:46:04;;;;;;;3.77;3.17;;;;;;;;;;5096077;28;20452;-71
2022/06/04 01:48:40;;;;;;;5.43;3.10;;;;;;;;;;5095487;28;20548;-71
2022/06/04 01:51:09;;;;;;;5.30;3.63;;;;;;;;;;5095445;28;20991;-71
2022/06/04 01:53:38;;;;;;;3.77;3.37;;;;;;;;;;5095109;28;20456;-71
2022/06/04 01:56:07;;;;;;;6.83;3.47;;;;;;;;;;5095021;28;20556;-70
2022/06/04 01:58:39;;;;;;;4.47;3.37;;;;;;;;;;5095323;28;20460;-71
2022/06/04 02:01:11;;;;;;;4.53;3.80;;;;;;;;;;5094932;28;20855;-70
2022/06/04 02:03:42;;;;;;;7.93;3.97;;;;;;;;;;5096223;28;20520;-71
2022/06/04 02:06:17;;;;;;;4.00;3.47;;;;;;;;;;5095743;28;20455;-71
2022/06/04 02:08:47;;;;;;;4.70;3.77;;;;;;;;;;5095556;28;20483;-70
2022/06/04 02:11:16;;;;;;;4.07;3.57;;;;;;;;;;5095840;28;20452;-71
2022/06/04 02:13:47;;;;;;;4.40;3.47;;;;;;;;;;5095222;28;20526;-70
2022/06/04 02:16:16;;;;;;;4.93;3.93;;;;;;;;;;5095661;28;20455;-70
2022/06/04 02:18:47;;;;;;;4.70;3.70;;;;;;;;;;5099132;28;20520;-70
2022/06/04 02:21:16;;;;;;;6.80;4.27;;;;;;;;;;5099377;28;20833;-70
2022/06/04 02:23:44;;;;;;;6.47;4.53;;;;;;;;;;5098562;28;20730;-70
2022/06/04 02:26:12;;;;;;;9.47;5.30;;;;;;;;;;5099201;28;20448;-70
2022/06/04 02:28:41;;;;;;;6.07;4.77;;;;;;;;;;5098548;28;20572;-70
2022/06/04 02:31:12;;;;;;;6.50;5.63;;;;;;;;;;5099512;28;20887;-70
2022/06/04 02:33:43;;;;;;;7.43;5.30;;;;;;;;;;5098924;28;20522;-70
2022/06/04 02:36:19;;;;;;;8.23;4.90;;;;;;;;;;5098916;28;20828;-70
2022/06/04 02:38:53;;;;;;;7.70;5.70;;;;;;;;;;5099596;28;20550;-70
2022/06/04 02:41:24;;;;;;;7.63;5.60;;;;;;;;;;5099206;28;20946;-70
2022/06/04 02:43:53;;;;;;;7.10;6.10;;;;;;;;;;5099237;28;20451;-70
2022/06/04 02:46:24;;;;;;;10.37;5.50;;;;;;;;;;5098803;28;20693;-70
2022/06/04 02:48:58;;;;;;;10.50;6.40;;;;;;;;;;5098919;28;20483;-70
2022/06/04 02:51:28;;;;;;;7.33;5.70;;;;;;;;;;5099118;28;20451;-70
2022/06/04 02:53:56;;;;;;;7.23;6.20;;;;;;;;;;5099097;28;20471;-70
2022/06/04 02:56:27;;;;;;;8.47;6.23;;;;;;;;;;5098657;28;20451;-70
2022/06/04 02:58:57;;;;;;;8.63;6.27;;;;;;;;;;5099174;28;20459;-70
2022/06/04 03:01:27;;;;;;;10.17;6.73;;;;;;;;;;5097702;28;20455;-70
2022/06/04 03:03:55;;;;;;;9.10;6.40;;;;;;;;;;5098830;28;20463;-70
2022/06/04 03:06:24;;;;;;;7.50;6.70;;;;;;;;;;5098342;28;20488;-70
2022/06/04 03:08:53;;;;;;;12.33;7.13;;;;;;;;;;5097916;28;20487;-70
2022/06/04 03:11:21;;;;;;;8.90;7.80;;;;;;;;;;5097975;28;20464;-70
2022/06/04 03:13:49;;;;;;;10.27;7.07;;;;;;;;;;5100660;28;20452;-70
2022/06/04 03:16:23;;;;;;;8.27;7.47;;;;;;;;;;5118721;28;20790;-70
2022/06/04 03:18:53;;;;;;;9.30;7.70;;;;;;;;;;5119819;28;20442;-70
2022/06/04 03:21:20;;;;;;;11.57;6.90;;;;;;;;;;5118638;28;20515;-70
2022/06/04 03:23:48;;;;;;;9.93;7.10;;;;;;;;;;5118655;28;20545;-70
2022/06/04 03:26:21;;;;;;;8.33;7.47;;;;;;;;;;5118142;28;20488;-70
2022/06/04 03:28:49;;;;;;;10.90;7.80;;;;;;;;;;5118039;28;20478;-70
2022/06/04 03:31:18;;;;;;;11.07;7.90;;;;;;;;;;5118164;28;20454;-70
2022/06/04 03:33:46;;;;;;;9.50;7.40;;;;;;;;;;5118704;28;20454;-70
2022/06/04 03:36:16;;;;;;;16.57;7.93;;;;;;;;;;5118450;28;20500;-70
2022/06/04 03:38:44;;;;;;;10.63;8.77;;;;;;;;;;5118854;28;20453;-70
2022/06/04 03:41:12;;;;;;;13.13;9.90;;;;;;;;;;5117273;28;20508;-70
2022/06/04 03:43:41;;;;;;;9.53;8.53;;;;;;;;;;5116187;28;20469;-70
2022/06/04 03:46:09;;;;;;;11.00;8.00;;;;;;;;;;5117954;28;20454;-70
2022/06/04 03:48:39;;;;;;;10.37;8.40;;;;;;;;;;5117580;28;20475;-70
2022/06/04 03:51:06;;;;;;;10.60;7.70;;;;;;;;;;5118290;28;20451;-70
2022/06/04 03:53:36;;;;;;;15.33;8.50;;;;;;;;;;5117710;28;20931;-70
2022/06/04 03:56:03;;;;;;;11.80;8.17;;;;;;;;;;5118008;28;20459;-70
2022/06/04 03:58:32;;;;;;;10.80;8.43;;;;;;;;;;5118063;28;20500;-70
2022/06/04 04:01:00;;;;;;;10.70;7.27;;;;;;;;;;5117755;28;20470;-70
2022/06/04 04:03:28;;;;;;;11.00;8.10;;;;;;;;;;5117351;28;20546;-70
2022/06/04 04:05:57;;;;;;;7.97;7.17;;;;;;;;;;5117540;28;20459;-70
2022/06/04 04:08:27;;;;;;;9.53;7.20;;;;;;;;;;5117164;28;20450;-71
2022/06/04 04:10:56;;;;;;;9.73;7.40;;;;;;;;;;5118144;28;20459;-70
2022/06/04 04:13:24;;;;;;;9.20;7.80;;;;;;;;;;5117285;28;20448;-70
2022/06/04 04:15:52;;;;;;;9.80;8.60;;;;;;;;;;5118048;28;20454;-70
2022/06/04 04:18:19;;;;;;;10.83;7.53;;;;;;;;;;5117461;28;20525;-70
2022/06/04 04:20:48;;;;;;;12.07;7.87;;;;;;;;;;5117654;28;20459;-70
2022/06/04 04:23:19;;;;;;;11.67;9.27;;;;;;;;;;5117322;28;20485;-70
2022/06/04 04:25:47;;;;;;;11.23;8.33;;;;;;;;;;5117767;28;20873;-71
2022/06/04 04:28:16;;;;;;;14.63;9.50;;;;;;;;;;5116564;28;20446;-70
2022/06/04 04:30:45;;;;;;;11.77;8.97;;;;;;;;;;5117233;28;20933;-70
2022/06/04 04:33:13;;;;;;;10.83;9.00;;;;;;;;;;5116555;28;20805;-70
2022/06/04 04:35:41;;;;;;;10.37;7.90;;;;;;;;;;5116701;28;20714;-70
2022/06/04 04:38:11;;;;;;;12.13;8.33;;;;;;;;;;5116854;28;20486;-71
2022/06/04 04:40:39;;;;;;;9.30;8.00;;;;;;;;;;5116239;28;20462;-70
2022/06/04 04:43:06;;;;;;;13.80;9.70;;;;;;;;;;5116709;28;20463;-70
2022/06/04 04:45:40;;;;;;;11.43;9.27;;;;;;;;;;5112443;28;20483;-71
2022/06/04 04:48:08;;;;;;;13.30;9.87;;;;;;;;;;5097022;28;20836;-70
2022/06/04 04:50:37;;;;;;;14.00;9.60;;;;;;;;;;5096669;28;20498;-71
2022/06/04 04:53:06;;;;;;;13.40;9.90;;;;;;;;;;5095811;28;20475;-70
2022/06/04 04:55:34;;;;;;;11.43;9.10;;;;;;;;;;5096186;28;20955;-71
2022/06/04 04:58:02;;;;;;;12.07;8.87;;;;;;;;;;5096067;28;20852;-70
2022/06/04 05:00:30;;;;;;;12.83;8.00;;;;;;;;;;5095795;28;20743;-70
2022/06/04 05:03:00;;;;;;;10.67;8.63;;;;;;;;;;5095403;28;20440;-70
2022/06/04 05:05:28;;;;;;;10.83;8.27;;;;;;;;;;5095817;28;20542;-71
2022/06/04 05:07:56;;;;;;;9.50;7.93;;;;;;;;;;5095857;28;20480;-71
2022/06/04 05:10:24;;;;;;;13.70;8.77;;;;;;;;;;5095911;28;20526;-71
2022/06/04 05:12:52;;;;;;;12.27;8.60;;;;;;;;;;5095732;28;20567;-71
2022/06/04 05:15:20;;;;;;;9.57;7.97;;;;;;;;;;5096190;28;20772;-70
2022/06/04 05:17:48;;;;;;;10.53;8.27;;;;;;;;;;5095907;28;20455;-70
2022/06/04 05:20:18;;;;;;;10.40;8.30;;;;;;;;;;5095722;28;20778;-71
2022/06/04 05:22:46;;;;;;;9.50;7.20;;;;;;;;;;5095659;28;20874;-70
2022/06/04 05:25:14;;;;;;;14.80;8.77;;;;;;;;;;5094803;28;20462;-70
2022/06/04 05:27:42;;;;;;;14.03;9.10;;;;;;;;;;5096094;28;20483;-70
2022/06/04 05:30:11;;;;;;;10.83;8.60;;;;;;;;;;5095721;28;20915;-70
2022/06/04 05:32:39;;;;;;;13.30;9.20;;;;;;;;;;5095109;28;20762;-70
2022/06/04 05:35:07;;;;;;;11.23;8.90;;;;;;;;;;5094996;28;20856;-70
2022/06/04 05:37:36;;;;;;;13.67;9.17;;;;;;;;;;5094678;28;20483;-71
2022/06/04 05:40:04;;;;;;;14.73;10.07;;;;;;;;;;5095736;28;20443;-71
2022/06/04 05:42:32;;;;;;;10.33;8.60;;;;;;;;;;5095521;28;20455;-70
2022/06/04 05:45:01;;;;;;;12.93;8.93;;;;;;;;;;5095279;28;20448;-71
2022/06/04 05:47:29;;;;;;;11.23;9.80;;;;;;;;;;5095158;28;20452;-70
2022/06/04 05:49:57;;;;;;;12.37;9.60;;;;;;;;;;5094695;28;20476;-71
2022/06/04 05:52:25;;;;;;;14.07;9.10;;;;;;;;;;5095393;28;20459;-70
2022/06/04 05:54:54;;;;;;;15.97;9.73;;;;;;;;;;5095319;28;20462;-70
2022/06/04 05:57:22;;;;;;;22.23;10.33;;;;;;;;;;5094380;28;20470;-70
2022/06/04 05:59:50;;;;;;;13.53;11.30;;;;;;;;;;5095235;28;20444;-71
2022/06/04 06:02:21;;;;;;;16.57;10.40;;;;;;;;;;5094521;28;20778;-70
2022/06/04 06:04:49;;;;;;;16.13;10.40;;;;;;;;;;5094256;28;20611;-71
2022/06/04 06:07:17;;;;;;;15.20;10.13;;;;;;;;;;5111361;28;20451;-70
2022/06/04 06:09:45;;;;;;;14.23;10.07;;;;;;;;;;5115228;28;20484;-71
2022/06/04 06:12:14;;;;;;;16.60;10.13;;;;;;;;;;5115193;28;20511;-71
2022/06/04 06:14:42;;;;;;;15.97;9.73;;;;;;;;;;5115358;28;20525;-70
2022/06/04 06:17:10;;;;;;;12.57;10.90;;;;;;;;;;5114628;28;20503;-71
2022/06/04 06:19:38;;;;;;;13.43;9.40;;;;;;;;;;5115571;28;20442;-71
2022/06/04 06:22:06;;;;;;;13.10;9.40;;;;;;;;;;5115051;28;20813;-71
2022/06/04 06:24:33;;;;;;;15.53;10.03;;;;;;;;;;5116262;28;20951;-71
2022/06/04 06:27:02;;;;;;;14.17;10.57;;;;;;;;;;5115983;28;20454;-71
2022/06/04 06:29:33;;;;;;;19.73;10.47;;;;;;;;;;5115988;28;20550;-71
2022/06/04 06:32:01;;;;;;;16.73;11.00;;;;;;;;;;5117565;28;20485;-71
2022/06/04 06:34:29;;;;;;;13.60;10.90;;;;;;;;;;5116410;28;20449;-71
2022/06/04 06:36:57;;;;;;;12.97;10.17;;;;;;;;;;5115944;28;20462;-71
2022/06/04 06:39:25;;;;;;;13.40;9.87;;;;;;;;;;5113574;28;20546;-71
2022/06/04 06:41:53;;;;;;;19.43;11.10;;;;;;;;;;5115392;28;20516;-70
2022/06/04 06:44:22;;;;;;;18.90;9.90;;;;;;;;;;5115671;28;20459;-70
2022/06/04 06:50:00;;;;;;;16.53;10.60;;;;;;;;;;5086721;28;20482;-70
2022/06/04 06:52:30;;;;;;;15.67;10.47;;;;;;;;;;5109142;28;20462;-71
2022/06/04 06:54:58;;;;;;;14.87;10.00;;;;;;;;;;5093271;28;20455;-70
2022/06/04 06:57:26;;;;;;;12.87;9.43;;;;;;;;;;5094520;28;20452;-70
2022/06/04 06:59:55;;;;;;;16.00;9.10;;;;;;;;;;5094863;28;20852;-70
2022/06/04 07:02:23;;;;;;;13.20;10.37;;;;;;;;;;5103953;28;20468;-70
2022/06/04 07:04:51;;;;;;;21.10;17.47;;;;;;;;;;5115416;28;20851;-70
2022/06/04 07:07:27;;;;;;;13.10;9.60;;;;;;;;;;5118053;28;20887;-70
2022/06/04 07:09:55;;;;;;;14.23;9.90;;;;;;;;;;5118739;28;20489;-70
2022/06/04 07:12:23;;;;;;;13.90;9.80;;;;;;;;;;5119503;28;20542;-70
2022/06/04 07:14:50;;;;;;;23.03;9.27;;;;;;;;;;5117862;28;20458;-71
2022/06/04 07:17:19;;;;;;;12.53;9.10;;;;;;;;;;5117530;28;20859;-70
2022/06/04 07:19:46;;;;;;;14.77;9.67;;;;;;;;;;5117660;28;20817;-72
2022/06/04 07:22:14;;;;;;;12.30;8.60;;;;;;;;;;5113866;28;20508;-72
2022/06/04 07:24:47;;;;;;;11.00;8.63;;;;;;;;;;5111374;28;20894;-70
2022/06/04 07:27:16;;;;;;;11.00;7.47;;;;;;;;;;5117469;28;20482;-71
2022/06/04 07:29:47;;;;;;;11.63;8.80;;;;;;;;;;5116888;28;20482;-72
2022/06/04 07:32:18;;;;;;;11.07;8.03;;;;;;;;;;5119494;27;20447;-71
2022/06/04 07:34:50;;;;;;;11.23;7.90;;;;;;;;;;5123884;27;20446;-72
2022/06/04 07:37:18;;;;;;;11.67;8.53;;;;;;;;;;5107113;27;20514;-71
2022/06/04 07:40:03;;;;;;;13.30;8.57;;;;;;;;;;5114071;28;20450;-71
2022/06/04 07:42:34;;;;;;;10.03;7.87;;;;;;;;;;5104756;28;20489;-71
2022/06/04 07:45:03;;;;;;;12.33;9.17;;;;;;;;;;5098474;28;20454;-70
2022/06/04 07:47:35;;;;;;;13.53;9.10;;;;;;;;;;5117187;28;20704;-71
2022/06/04 07:50:04;;;;;;;13.43;8.50;;;;;;;;;;5115829;28;20487;-69
2022/06/04 07:52:37;;;;;;;12.10;9.00;;;;;;;;;;5113437;28;20501;-69
2022/06/04 07:55:06;;;;;;;12.87;8.30;;;;;;;;;;5116186;27;20470;-71
2022/06/04 07:57:35;;;;;;;14.47;8.77;;;;;;;;;;5114855;27;20458;-71
2022/06/04 08:00:10;;;;;;;12.47;8.90;;;;;;;;;;5107895;27;20485;-71
2022/06/04 08:02:38;;;;;;;9.80;8.23;;;;;;;;;;5116970;27;20823;-72
2022/06/04 08:05:06;;;;;;;12.10;8.53;;;;;;;;;;5116683;28;20469;-71
2022/06/04 08:07:34;;;;;;;12.30;9.10;;;;;;;;;;5117346;27;20454;-72
2022/06/04 08:10:03;;;;;;;14.33;8.80;;;;;;;;;;5117479;27;20540;-71
2022/06/04 08:12:32;;;;;;;13.43;9.20;;;;;;;;;;5116784;27;20455;-71
2022/06/04 08:15:05;;;;;;;12.40;8.40;;;;;;;;;;5115927;27;20572;-71
2022/06/04 08:17:33;;;;;;;12.10;8.60;;;;;;;;;;5116922;27;20465;-70
2022/06/04 08:20:01;;;;;;;11.73;8.63;;;;;;;;;;5116719;27;20472;-71
2022/06/04 08:22:40;;;;;;;13.87;7.77;;;;;;;;;;5108432;28;20474;-71
2022/06/04 08:25:08;;;;;;;11.70;8.10;;;;;;;;;;5096162;28;20451;-70
2022/06/04 08:27:36;;;;;;;8.63;7.70;;;;;;;;;;5126306;27;20528;-71
2022/06/04 08:30:07;;;;;;;9.30;7.67;;;;;;;;;;5136960;27;20496;-71
2022/06/04 08:32:36;;;;;;;9.47;7.67;;;;;;;;;;5136713;27;20533;-71
2022/06/04 08:35:04;;;;;;;10.57;7.57;;;;;;;;;;5134971;27;20457;-69
2022/06/04 08:37:32;;;;;;;10.60;7.67;;;;;;;;;;5114689;27;20757;-69
2022/06/04 08:40:06;;;;;;;12.10;7.73;;;;;;;;;;5112536;28;20838;-72
2022/06/04 08:42:51;;;;;;;11.50;8.00;;;;;;;;;;5112904;28;20544;-70
2022/06/04 08:45:25;;;;;;;12.60;7.73;;;;;;;;;;5116867;27;20482;-72
2022/06/04 08:47:54;;;;;;;10.57;7.00;;;;;;;;;;5115877;27;20579;-71
2022/06/04 08:50:28;;;;;;;9.53;7.60;;;;;;;;;;5096146;28;20745;-70
2022/06/04 08:53:02;;;;;;;7.87;6.73;;;;;;;;;;5095674;28;20487;-70
2022/06/04 08:58:30;;;;;;;8.17;6.90;;;;;;;;;;5117073;27;20542;-71
2022/06/04 09:01:04;;;;;;;10.57;6.40;;;;;;;;;;5117084;27;20474;-71
2022/06/04 09:03:34;;;;;;;8.00;4.83;;;;;;;;;;5118313;28;20549;-70
2022/06/04 09:06:28;;;;;;;10.90;6.60;;;;;;;;;;5117643;27;20451;-70
2022/06/04 09:09:01;;;;;;;7.30;5.50;;;;;;;;;;5098712;27;20446;-71
2022/06/04 09:11:31;;;;;;;8.43;5.60;;;;;;;;;;5117187;27;20609;-70
2022/06/04 09:14:22;;;;;;;9.50;5.77;;;;;;;;;;5117442;27;20851;-69
2022/06/04 09:16:56;;;;;;;9.40;6.43;;;;;;;;;;5100053;28;20811;-71
2022/06/04 09:19:27;;;;;;;6.73;5.23;;;;;;;;;;5115756;27;20907;-72
2022/06/04 09:21:59;;;;;;;5.70;4.73;;;;;;;;;;5116096;28;20462;-72
2022/06/04 09:24:27;;;;;;;6.93;6.07;;;;;;;;;;5108523;28;20545;-71
2022/06/04 09:27:01;;;;;;;7.83;6.30;;;;;;;;;;5116679;27;20459;-70
2022/06/04 09:29:48;;;;;;;11.57;5.70;;;;;;;;;;5115318;27;20571;-70
2022/06/04 09:32:25;;;;;;;7.17;5.40;;;;;;;;;;5113732;28;20615;-71
2022/06/04 09:34:54;;;;;;;6.43;4.57;;;;;;;;;;5094082;28;20459;-72
2022/06/04 09:37:23;;;;;;;7.00;5.13;;;;;;;;;;5093064;28;20469;-70
2022/06/04 09:40:02;;;;;;;6.23;4.40;;;;;;;;;;5102150;28;20455;-71
2022/06/04 09:42:31;;;;;;;5.63;3.90;;;;;;;;;;5114479;28;20578;-72
2022/06/04 09:45:00;;;;;;;9.57;4.07;;;;;;;;;;5112321;27;20439;-70
2022/06/04 09:47:32;;;;;;;6.80;4.47;;;;;;;;;;5105179;27;20551;-72
2022/06/04 09:50:03;;;;;;;7.97;6.00;;;;;;;;;;5095243;27;20720;-72
2022/06/04 09:52:35;;;;;;;5.07;3.60;;;;;;;;;;5093467;27;20521;-72
2022/06/04 09:55:09;;;;;;;4.93;3.50;;;;;;;;;;5104788;28;20542;-72
2022/06/04 09:57:40;;;;;;;4.10;3.50;;;;;;;;;;5114517;28;21013;-73
2022/06/04 10:00:22;;;;;;;9.63;4.20;;;;;;;;;;5112022;27;20466;-73
2022/06/04 10:02:58;;;;;;;4.60;3.33;;;;;;;;;;5108953;28;20884;-72
2022/06/04 10:05:31;;;;;;;5.50;3.40;;;;;;;;;;5114466;28;20576;-72
2022/06/04 10:08:00;;;;;;;4.97;2.37;;;;;;;;;;5116250;28;21113;-73
2022/06/04 10:10:40;;;;;;;4.30;2.37;;;;;;;;;;5110782;28;20497;-72
2022/06/04 10:16:20;;;;;;;4.07;2.60;;;;;;;;;;5101024;28;20460;-72
2022/06/04 10:18:58;;;;;;;9.00;4.17;;;;;;;;;;5106322;28;20501;-72
2022/06/04 10:21:27;;;;;;;4.10;3.40;;;;;;;;;;5098855;28;20857;-73
2022/06/04 10:24:09;;;;;;;4.73;3.27;;;;;;;;;;5103586;28;20464;-72
2022/06/04 10:26:51;;;;;;;6.30;3.70;;;;;;;;;;5107341;28;20861;-72
2022/06/04 10:29:26;;;;;;;5.20;3.60;;;;;;;;;;5113801;28;20455;-73
2022/06/04 10:32:02;;;;;;;3.37;2.30;;;;;;;;;;5112741;28;20477;-75
2022/06/04 10:34:33;;;;;;;4.00;1.87;;;;;;;;;;5112736;27;20464;-71
2022/06/04 10:37:08;;;;;;;3.80;2.33;;;;;;;;;;5115461;27;21085;-71
2022/06/04 10:39:43;;;;;;;4.10;2.67;;;;;;;;;;5117679;27;20468;-72
2022/06/04 10:42:28;;;;;;;7.90;3.80;;;;;;;;;;5116397;27;20469;-73
2022/06/04 10:45:19;;;;;;;5.00;3.73;;;;;;;;;;5111705;27;20454;-72
2022/06/04 10:47:59;;;;;;;10.90;7.40;;;;;;;;;;5101537;27;20463;-72
2022/06/04 10:53:31;;;;;;;5.10;3.90;;;;;;;;;;5115164;27;20447;-71
2022/06/04 10:56:19;;;;;;;4.60;3.23;;;;;;;;;;5115714;27;20502;-72
2022/06/04 10:58:50;;;;;;;4.23;2.43;;;;;;;;;;5097415;28;20443;-71
2022/06/04 11:01:22;;;;;;;4.37;2.60;;;;;;;;;;5097797;28;20546;-71
2022/06/04 11:03:55;;;;;;;5.13;2.83;;;;;;;;;;5097896;28;20443;-71
2022/06/04 11:06:32;;;;;;;4.03;2.57;;;;;;;;;;5097116;28;20528;-72
2022/06/04 11:09:06;;;;;;;3.70;2.87;;;;;;;;;;5115454;27;20454;-71
2022/06/04 11:11:36;;;;;;;4.27;2.90;;;;;;;;;;5116290;27;20485;-73
2022/06/04 11:14:11;;;;;;;7.60;3.10;;;;;;;;;;5114331;27;20450;-73
2022/06/04 11:16:42;;;;;;;4.37;3.00;;;;;;;;;;5117458;27;20442;-73
2022/06/04 11:19:15;;;;;;;4.17;2.20;;;;;;;;;;5116171;27;20825;-72
2022/06/04 11:21:56;;;;;;;4.00;2.20;;;;;;;;;;5117382;27;21013;-74
2022/06/04 11:24:29;;;;;;;6.10;2.20;;;;;;;;;;5110678;28;20493;-72
2022/06/04 11:26:59;;;;;;;5.73;2.10;;;;;;;;;;5109494;27;20454;-70
2022/06/04 11:29:31;;;;;;;3.43;2.07;;;;;;;;;;5117180;27;20614;-71
2022/06/04 11:32:07;;;;;;;4.53;2.73;;;;;;;;;;5105143;28;21000;-72
2022/06/04 11:34:58;;;;;;;8.10;2.03;;;;;;;;;;5107107;28;20766;-72
2022/06/04 11:37:35;;;;;;;3.57;2.33;;;;;;;;;;5114080;27;20458;-72
2022/06/04 11:40:13;;;;;;;3.57;1.90;;;;;;;;;;5116899;27;21052;-73
2022/06/04 11:42:51;;;;;;;5.87;3.80;;;;;;;;;;5111782;27;20474;-72
2022/06/04 11:45:29;;;;;;;4.30;2.40;;;;;;;;;;5115737;27;21172;-72
2022/06/04 11:48:23;;;;;;;3.30;2.60;;;;;;;;;;5116082;27;20880;-72
2022/06/04 11:50:57;;;;;;;5.53;2.57;;;;;;;;;;5115861;27;20519;-72
2022/06/04 11:53:32;;;;;;;4.00;1.97;;;;;;;;;;5116038;27;20651;-72
2022/06/04 11:56:07;;;;;;;2.93;2.07;;;;;;;;;;5109384;27;20505;-72
2022/06/04 11:58:49;;;;;;;2.80;2.03;;;;;;;;;;5104813;27;20559;-72
2022/06/04 12:01:19;;;;;;;8.03;4.00;;;;;;;;;;5111357;27;20497;-72
2022/06/04 12:03:54;;;;;;;2.90;2.20;;;;;;;;;;5112601;27;20482;-73
2022/06/04 12:06:24;;;;;;;3.63;1.60;;;;;;;;;;5117869;27;20462;-72
2022/06/04 12:09:01;;;;;;;5.43;1.97;;;;;;;;;;5114676;27;20466;-73
2022/06/04 12:11:36;;;;;;;3.80;2.53;;;;;;;;;;5129814;27;20572;-72
2022/06/04 12:14:06;;;;;;;3.03;2.03;;;;;;;;;;5113005;27;20542;-73
2022/06/04 12:16:44;;;;;;;4.07;1.57;;;;;;;;;;5095150;28;20443;-71
2022/06/04 12:25:08;;;;;;;4.20;2.87;;;;;;;;;;5107275;27;20499;-69
2022/06/04 12:27:38;;;;;;;3.80;2.53;;;;;;;;;;5112437;27;20520;-71
2022/06/04 12:30:16;;;;;;;5.07;2.23;;;;;;;;;;5109205;27;20485;-71
2022/06/04 12:32:45;;;;;;;3.97;2.37;;;;;;;;;;5107171;28;20489;-71
2022/06/04 12:35:21;;;;;;;3.53;2.30;;;;;;;;;;5113825;27;20539;-72
2022/06/04 12:37:53;;;;;;;3.80;2.47;;;;;;;;;;5114686;27;20447;-71
2022/06/04 12:40:34;;;;;;;3.83;1.80;;;;;;;;;;5113764;27;20500;-71
2022/06/04 12:43:31;;;;;;;3.70;2.20;;;;;;;;;;5111589;27;20456;-72
2022/06/04 12:46:31;;;;;;;5.77;1.90;;;;;;;;;;5122467;27;20516;-73
2022/06/04 12:49:19;;;;;;;4.17;3.40;;;;;;;;;;5111192;27;20454;-73
2022/06/04 12:51:54;;;;;;;4.10;2.10;;;;;;;;;;5110793;27;20470;-72
2022/06/04 12:54:31;;;;;;;4.50;3.10;;;;;;;;;;5110947;27;20545;-72
2022/06/04 12:57:10;;;;;;;4.90;3.63;;;;;;;;;;5109384;27;20471;-72
2022/06/04 12:59:45;;;;;;;2.60;2.13;;;;;;;;;;5114878;27;20565;-73
2022/06/04 13:02:30;;;;;;;4.40;2.40;;;;;;;;;;5094999;28;20907;-72
2022/06/04 13:05:10;;;;;;;4.47;3.00;;;;;;;;;;5100218;27;20526;-71
2022/06/04 13:07:44;;;;;;;3.70;2.53;;;;;;;;;;5108873;27;20484;-72
2022/06/04 13:10:24;;;;;;;6.20;2.13;;;;;;;;;;5115766;27;22205;-72
2022/06/04 13:13:01;;;;;;;2.80;2.17;;;;;;;;;;5123666;27;20899;-72
2022/06/04 13:15:36;;;;;;;3.60;2.00;;;;;;;;;;5094894;28;20479;-71
2022/06/04 13:18:05;;;;;;;6.90;5.27;;;;;;;;;;5108278;27;20493;-72
2022/06/04 13:20:43;;;;;;;3.50;2.50;;;;;;;;;;5118301;27;20473;-72
2022/06/04 13:23:26;;;;;;;3.47;2.73;;;;;;;;;;5115552;27;20812;-71
2022/06/04 13:26:03;;;;;;;5.67;4.43;;;;;;;;;;5111500;27;20509;-72
2022/06/04 13:28:39;;;;;;;4.10;2.43;;;;;;;;;;5114277;27;20571;-73
2022/06/04 13:31:24;;;;;;;5.73;2.47;;;;;;;;;;5113589;28;20455;-72
2022/06/04 13:33:54;;;;;;;4.90;2.50;;;;;;;;;;5112612;27;20458;-72
2022/06/04 13:36:26;;;;;;;3.70;2.43;;;;;;;;;;5094023;28;20878;-72
2022/06/04 13:38:56;;;;;;;4.17;2.30;;;;;;;;;;5096024;27;20443;-71
2022/06/04 13:44:22;;;;;;;4.27;2.80;;;;;;;;;;5114178;28;20429;-71
2022/06/04 13:46:52;;;;;;;12.03;10.87;;;;;;;;;;5114430;27;20466;-71
2022/06/04 13:49:23;;;;;;;5.03;2.40;;;;;;;;;;5115066;27;20499;-71
2022/06/04 13:51:57;;;;;;;4.80;2.33;;;;;;;;;;5113969;27;20490;-72
2022/06/04 13:54:26;;;;;;;4.50;3.60;;;;;;;;;;5112281;28;20570;-71
2022/06/04 13:56:54;;;;;;;5.13;3.17;;;;;;;;;;5114878;28;20462;-72
2022/06/04 13:59:39;;;;;;;3.20;2.03;;;;;;;;;;5110832;28;20463;-72
2022/06/04 14:02:22;;;;;;;2.97;1.77;;;;;;;;;;5110669;28;20469;-72
2022/06/04 14:08:02;;;;;;;3.90;1.93;;;;;;;;;;5030917;28;20430;-71
2022/06/04 14:10:30;;;;;;;9.40;1.70;;;;;;;;;;5084539;28;20455;-72
2022/06/04 14:13:02;;;;;;;2.87;1.57;;;;;;;;;;5096222;28;21043;-71
2022/06/04 14:15:45;;;;;;;2.80;1.83;;;;;;;;;;5098413;28;20917;-71
2022/06/04 14:18:26;;;;;;;3.97;2.63;;;;;;;;;;5109862;27;20462;-71
2022/06/04 14:21:11;;;;;;;3.70;2.50;;;;;;;;;;5118762;27;20470;-71
2022/06/04 14:23:42;;;;;;;3.23;2.30;;;;;;;;;;5097735;28;20463;-71
2022/06/04 14:26:23;;;;;;;2.63;1.60;;;;;;;;;;5102212;27;20489;-71
2022/06/04 14:28:55;;;;;;;7.03;1.83;;;;;;;;;;5118488;27;20462;-71
2022/06/04 14:31:38;;;;;;;3.70;1.70;;;;;;;;;;5118696;27;20507;-71
2022/06/04 14:34:06;;;;;;;3.10;2.30;;;;;;;;;;5117218;27;20450;-71
2022/06/04 14:36:34;;;;;;;2.43;1.60;;;;;;;;;;5118693;28;20507;-71
2022/06/04 14:39:02;;;;;;;10.07;8.33;;;;;;;;;;5118716;27;20451;-73
2022/06/04 14:41:42;;;;;;;3.43;2.10;;;;;;;;;;5118665;27;20451;-72
2022/06/04 14:44:19;;;;;;;2.33;1.77;;;;;;;;;;5119712;27;20556;-72
2022/06/04 14:47:04;;;;;;;2.90;2.10;;;;;;;;;;5119203;27;20456;-72
2022/06/04 14:49:55;;;;;;;3.47;1.83;;;;;;;;;;5118332;27;20564;-72
2022/06/04 14:52:36;;;;;;;2.70;1.60;;;;;;;;;;5118167;27;20994;-72
2022/06/04 14:55:08;;;;;;;3.20;2.20;;;;;;;;;;5117926;27;20489;-72
2022/06/04 14:57:51;;;;;;;4.10;1.90;;;;;;;;;;5117797;27;20542;-72
2022/06/04 15:00:25;;;;;;;2.70;1.73;;;;;;;;;;5117319;27;20532;-71
2022/06/04 15:03:13;;;;;;;6.43;5.70;;;;;;;;;;5117404;27;20908;-71
2022/06/04 15:05:47;;;;;;;2.80;1.90;;;;;;;;;;5112421;28;20454;-72
2022/06/04 15:08:41;;;;;;;3.03;1.80;;;;;;;;;;5117052;27;20454;-71
2022/06/04 15:11:20;;;;;;;4.70;2.30;;;;;;;;;;5041366;28;20550;-73
2022/06/04 15:14:05;;;;;;;6.50;2.07;;;;;;;;;;5045341;28;20487;-72
2022/06/04 15:16:42;;;;;;;4.10;2.53;;;;;;;;;;5101347;28;20470;-72
2022/06/04 15:19:21;;;;;;;5.00;2.43;;;;;;;;;;5117197;27;20519;-72
2022/06/04 15:21:59;;;;;;;4.10;2.43;;;;;;;;;;5117399;27;20494;-71
2022/06/04 15:24:37;;;;;;;3.03;1.93;;;;;;;;;;5116724;27;20693;-73
2022/06/04 15:27:28;;;;;;;4.80;1.93;;;;;;;;;;5114735;27;20500;-72
2022/06/04 15:35:37;;;;;;;2.87;1.90;;;;;;;;;;5119112;28;20458;-72
2022/06/04 15:38:11;;;;;;;3.03;1.93;;;;;;;;;;5118662;27;20708;-72
2022/06/04 15:41:16;;;;;;;;;;;;;;;;;;;;;
2022/06/04 15:44:05;;;;;;;2.93;2.30;;;;;;;;;;5117414;27;20772;-72
2022/06/04 15:46:39;;;;;;;3.77;2.10;;;;;;;;;;5096454;28;20851;-71